sensor_id;sensor_type;location;lat;lon;timestamp;pressure;altitude;pressure_sealevel;temperature;humidity
72038;BME280;59900;50.788;12.904;2023-04-04T00:00:15;98620.41;;;1.38;70.05
72038;BME280;59900;50.788;12.904;2023-04-04T00:02:40;98619.19;;;1.31;70.21
72038;BME280;59900;50.788;12.904;2023-04-04T00:05:06;98614.72;;;1.33;70.48
72038;BME280;59900;50.788;12.904;2023-04-04T00:07:31;98620.47;;;1.25;71.15
72038;BME280;59900;50.788;12.904;2023-04-04T00:09:57;98612.22;;;1.20;71.33
72038;BME280;59900;50.788;12.904;2023-04-04T00:12:22;98614.91;;;1.19;71.50
72038;BME280;59900;50.788;12.904;2023-04-04T00:14:48;98613.25;;;1.18;71.46
72038;BME280;59900;50.788;12.904;2023-04-04T00:17:13;98609.94;;;1.16;71.94
72038;BME280;59900;50.788;12.904;2023-04-04T00:19:39;98605.94;;;1.11;72.07
72038;BME280;59900;50.788;12.904;2023-04-04T00:22:04;98598.41;;;1.08;72.86
72038;BME280;59900;50.788;12.904;2023-04-04T00:24:29;98603.06;;;1.03;72.79
72038;BME280;59900;50.788;12.904;2023-04-04T00:26:55;98598.09;;;1.00;73.29
72038;BME280;59900;50.788;12.904;2023-04-04T00:29:20;98598.09;;;1.00;73.15
72038;BME280;59900;50.788;12.904;2023-04-04T00:31:46;98593.44;;;1.05;73.53
72038;BME280;59900;50.788;12.904;2023-04-04T00:34:11;98593.31;;;1.07;73.22
72038;BME280;59900;50.788;12.904;2023-04-04T00:36:36;98600.88;;;1.10;73.44
72038;BME280;59900;50.788;12.904;2023-04-04T00:39:02;98589.69;;;1.09;73.48
72038;BME280;59900;50.788;12.904;2023-04-04T00:41:27;98587.53;;;1.03;73.88
72038;BME280;59900;50.788;12.904;2023-04-04T00:43:53;98595.44;;;1.02;74.04
72038;BME280;59900;50.788;12.904;2023-04-04T00:46:19;98591.53;;;0.96;74.23
72038;BME280;59900;50.788;12.904;2023-04-04T00:48:44;98588.94;;;0.96;74.46
72038;BME280;59900;50.788;12.904;2023-04-04T00:51:10;98590.69;;;0.96;74.84
72038;BME280;59900;50.788;12.904;2023-04-04T00:53:36;98592.56;;;0.94;75.08
72038;BME280;59900;50.788;12.904;2023-04-04T00:56:02;98593.50;;;0.93;75.19
72038;BME280;59900;50.788;12.904;2023-04-04T00:58:28;98586.34;;;0.96;74.84
72038;BME280;59900;50.788;12.904;2023-04-04T01:00:54;98587.19;;;0.97;75.56
72038;BME280;59900;50.788;12.904;2023-04-04T01:03:19;98594.69;;;1.00;75.38
72038;BME280;59900;50.788;12.904;2023-04-04T01:05:44;98590.56;;;0.97;75.61
72038;BME280;59900;50.788;12.904;2023-04-04T01:08:10;98592.34;;;0.97;75.79
72038;BME280;59900;50.788;12.904;2023-04-04T01:10:36;98590.56;;;0.97;75.98
72038;BME280;59900;50.788;12.904;2023-04-04T01:13:02;98582.00;;;0.97;76.51
72038;BME280;59900;50.788;12.904;2023-04-04T01:15:27;98591.63;;;0.95;76.37
72038;BME280;59900;50.788;12.904;2023-04-04T01:17:56;98588.31;;;0.93;76.67
72038;BME280;59900;50.788;12.904;2023-04-04T01:20:25;98575.38;;;0.93;76.55
72038;BME280;59900;50.788;12.904;2023-04-04T01:22:51;98572.19;;;0.89;76.54
72038;BME280;59900;50.788;12.904;2023-04-04T01:25:18;98577.34;;;0.89;76.58
72038;BME280;59900;50.788;12.904;2023-04-04T01:27:43;98568.75;;;0.89;76.91
72038;BME280;59900;50.788;12.904;2023-04-04T01:30:09;98573.94;;;0.89;77.02
72038;BME280;59900;50.788;12.904;2023-04-04T01:32:50;98560.84;;;0.79;77.22
72038;BME280;59900;50.788;12.904;2023-04-04T01:35:29;98561.88;;;0.77;77.81
72038;BME280;59900;50.788;12.904;2023-04-04T01:40:54;98547.91;;;0.79;77.07
72038;BME280;59900;50.788;12.904;2023-04-04T01:43:21;98552.03;;;0.82;77.25
72038;BME280;59900;50.788;12.904;2023-04-04T01:45:48;98559.28;;;0.77;77.55
72038;BME280;59900;50.788;12.904;2023-04-04T01:48:13;98553.53;;;0.73;78.12
72038;BME280;59900;50.788;12.904;2023-04-04T01:50:40;98557.75;;;0.74;77.61
72038;BME280;59900;50.788;12.904;2023-04-04T01:53:06;98554.69;;;0.69;78.41
72038;BME280;59900;50.788;12.904;2023-04-04T01:55:31;98549.28;;;0.72;78.18
72038;BME280;59900;50.788;12.904;2023-04-04T01:57:56;98552.69;;;0.73;78.07
72038;BME280;59900;50.788;12.904;2023-04-04T02:00:21;98555.28;;;0.73;78.32
72038;BME280;59900;50.788;12.904;2023-04-04T02:02:47;98553.41;;;0.75;78.41
72038;BME280;59900;50.788;12.904;2023-04-04T02:05:12;98546.22;;;0.67;78.88
72038;BME280;59900;50.788;12.904;2023-04-04T02:07:37;98545.25;;;0.68;78.41
72038;BME280;59900;50.788;12.904;2023-04-04T02:10:03;98551.16;;;0.70;78.66
72038;BME280;59900;50.788;12.904;2023-04-04T02:12:28;98540.69;;;0.72;78.72
72038;BME280;59900;50.788;12.904;2023-04-04T02:14:54;98542.44;;;0.71;78.35
72038;BME280;59900;50.788;12.904;2023-04-04T02:17:19;98534.38;;;0.76;79.14
72038;BME280;59900;50.788;12.904;2023-04-04T02:19:44;98536.13;;;0.75;79.16
72038;BME280;59900;50.788;12.904;2023-04-04T02:22:10;98541.09;;;0.78;79.13
72038;BME280;59900;50.788;12.904;2023-04-04T02:24:35;98538.00;;;0.73;79.36
72038;BME280;59900;50.788;12.904;2023-04-04T02:27:00;98544.41;;;0.68;78.73
72038;BME280;59900;50.788;12.904;2023-04-04T02:29:25;98536.09;;;0.64;79.24
72038;BME280;59900;50.788;12.904;2023-04-04T02:31:51;98535.69;;;0.57;79.53
72038;BME280;59900;50.788;12.904;2023-04-04T02:34:16;98544.06;;;0.61;79.74
72038;BME280;59900;50.788;12.904;2023-04-04T02:36:42;98537.34;;;0.59;79.64
72038;BME280;59900;50.788;12.904;2023-04-04T02:39:07;98539.81;;;0.60;79.66
72038;BME280;59900;50.788;12.904;2023-04-04T02:41:32;98536.50;;;0.58;80.23
72038;BME280;59900;50.788;12.904;2023-04-04T02:43:58;98534.03;;;0.56;80.11
72038;BME280;59900;50.788;12.904;2023-04-04T02:46:23;98529.28;;;0.50;80.27
72038;BME280;59900;50.788;12.904;2023-04-04T02:48:48;98530.69;;;0.43;80.53
72038;BME280;59900;50.788;12.904;2023-04-04T02:51:15;98531.72;;;0.41;80.83
72038;BME280;59900;50.788;12.904;2023-04-04T02:53:40;98529.72;;;0.44;81.14
72038;BME280;59900;50.788;12.904;2023-04-04T02:56:06;98530.78;;;0.42;80.94
72038;BME280;59900;50.788;12.904;2023-04-04T02:58:32;98527.25;;;0.43;81.17
72038;BME280;59900;50.788;12.904;2023-04-04T03:00:57;98524.53;;;0.44;80.82
72038;BME280;59900;50.788;12.904;2023-04-04T03:03:22;98525.72;;;0.40;81.30
72038;BME280;59900;50.788;12.904;2023-04-04T03:05:48;98528.09;;;0.43;80.87
72038;BME280;59900;50.788;12.904;2023-04-04T03:08:14;98529.00;;;0.42;81.35
72038;BME280;59900;50.788;12.904;2023-04-04T03:10:39;98521.38;;;0.41;81.29
72038;BME280;59900;50.788;12.904;2023-04-04T03:13:05;98518.19;;;0.37;81.63
72038;BME280;59900;50.788;12.904;2023-04-04T03:15:30;98514.84;;;0.35;81.93
72038;BME280;59900;50.788;12.904;2023-04-04T03:17:55;98513.31;;;0.33;81.74
72038;BME280;59900;50.788;12.904;2023-04-04T03:20:20;98508.75;;;0.36;81.24
72038;BME280;59900;50.788;12.904;2023-04-04T03:22:46;98506.00;;;0.27;82.20
72038;BME280;59900;50.788;12.904;2023-04-04T03:25:12;98508.91;;;0.22;82.86
72038;BME280;59900;50.788;12.904;2023-04-04T03:27:37;98511.50;;;0.22;82.40
72038;BME280;59900;50.788;12.904;2023-04-04T03:30:05;98511.59;;;0.21;82.56
72038;BME280;59900;50.788;12.904;2023-04-04T03:32:30;98510.56;;;0.23;82.67
72038;BME280;59900;50.788;12.904;2023-04-04T03:34:55;98506.13;;;0.25;82.39
72038;BME280;59900;50.788;12.904;2023-04-04T03:37:20;98515.53;;;0.26;82.63
72038;BME280;59900;50.788;12.904;2023-04-04T03:39:46;98509.09;;;0.32;82.51
72038;BME280;59900;50.788;12.904;2023-04-04T03:42:12;98509.94;;;0.32;82.48
72038;BME280;59900;50.788;12.904;2023-04-04T03:44:41;98506.09;;;0.38;82.77
72038;BME280;59900;50.788;12.904;2023-04-04T03:47:06;98504.50;;;0.35;82.54
72038;BME280;59900;50.788;12.904;2023-04-04T03:49:32;98500.16;;;0.36;82.70
72038;BME280;59900;50.788;12.904;2023-04-04T03:51:58;98510.09;;;0.42;82.48
72038;BME280;59900;50.788;12.904;2023-04-04T03:54:23;98499.25;;;0.37;82.68
72038;BME280;59900;50.788;12.904;2023-04-04T03:56:48;98502.06;;;0.34;82.62
72038;BME280;59900;50.788;12.904;2023-04-04T03:59:13;98495.34;;;0.31;82.45
72038;BME280;59900;50.788;12.904;2023-04-04T04:01:39;98505.78;;;0.30;82.70
72038;BME280;59900;50.788;12.904;2023-04-04T04:04:04;98493.91;;;0.27;83.19
72038;BME280;59900;50.788;12.904;2023-04-04T04:06:30;98497.09;;;0.31;83.07
72038;BME280;59900;50.788;12.904;2023-04-04T04:08:56;98507.56;;;0.29;83.71
72038;BME280;59900;50.788;12.904;2023-04-04T04:11:21;98497.44;;;0.26;83.10
72038;BME280;59900;50.788;12.904;2023-04-04T04:13:46;98497.53;;;0.25;83.58
72038;BME280;59900;50.788;12.904;2023-04-04T04:16:11;98502.59;;;0.26;83.49
72038;BME280;59900;50.788;12.904;2023-04-04T04:18:36;98493.91;;;0.27;83.27
72038;BME280;59900;50.788;12.904;2023-04-04T04:21:02;98489.91;;;0.23;83.67
72038;BME280;59900;50.788;12.904;2023-04-04T04:23:28;98496.69;;;0.24;83.71
72038;BME280;59900;50.788;12.904;2023-04-04T04:25:54;98500.94;;;0.25;84.01
72038;BME280;59900;50.788;12.904;2023-04-04T04:28:20;98504.56;;;0.23;83.80
72038;BME280;59900;50.788;12.904;2023-04-04T04:30:45;98502.91;;;0.22;84.07
72038;BME280;59900;50.788;12.904;2023-04-04T04:33:10;98494.84;;;0.26;84.07
72038;BME280;59900;50.788;12.904;2023-04-04T04:35:36;98497.44;;;0.26;83.88
72038;BME280;59900;50.788;12.904;2023-04-04T04:38:03;98491.31;;;0.27;83.81
72038;BME280;59900;50.788;12.904;2023-04-04T04:40:28;98492.06;;;0.29;83.70
72038;BME280;59900;50.788;12.904;2023-04-04T04:42:53;98496.25;;;0.30;83.70
72038;BME280;59900;50.788;12.904;2023-04-04T04:45:18;98489.34;;;0.31;83.53
72038;BME280;59900;50.788;12.904;2023-04-04T04:47:43;98490.78;;;0.35;83.73
72038;BME280;59900;50.788;12.904;2023-04-04T04:50:09;98495.84;;;0.36;83.53
72038;BME280;59900;50.788;12.904;2023-04-04T04:52:36;98498.09;;;0.41;83.56
72038;BME280;59900;50.788;12.904;2023-04-04T04:55:01;98493.88;;;0.40;83.39
72038;BME280;59900;50.788;12.904;2023-04-04T04:57:26;98497.72;;;0.34;83.51
72038;BME280;59900;50.788;12.904;2023-04-04T04:59:52;98495.44;;;0.30;83.79
72038;BME280;59900;50.788;12.904;2023-04-04T05:02:17;98498.03;;;0.30;83.92
72038;BME280;59900;50.788;12.904;2023-04-04T05:04:42;98504.63;;;0.34;83.75
72038;BME280;59900;50.788;12.904;2023-04-04T05:07:09;98503.72;;;0.35;83.43
72038;BME280;59900;50.788;12.904;2023-04-04T05:09:36;98503.72;;;0.35;83.76
72038;BME280;59900;50.788;12.904;2023-04-04T05:12:02;98502.66;;;0.37;83.79
72038;BME280;59900;50.788;12.904;2023-04-04T05:14:27;98509.25;;;0.41;83.60
72038;BME280;59900;50.788;12.904;2023-04-04T05:16:52;98516.31;;;0.39;83.45
72038;BME280;59900;50.788;12.904;2023-04-04T05:19:18;98516.78;;;0.44;83.12
72038;BME280;59900;50.788;12.904;2023-04-04T05:21:43;98521.97;;;0.44;83.19
72038;BME280;59900;50.788;12.904;2023-04-04T05:24:08;98518.50;;;0.33;83.77
72038;BME280;59900;50.788;12.904;2023-04-04T05:26:34;98525.94;;;0.37;83.42
72038;BME280;59900;50.788;12.904;2023-04-04T05:28:59;98525.09;;;0.37;83.60
72038;BME280;59900;50.788;12.904;2023-04-04T05:31:24;98528.53;;;0.37;83.53
72038;BME280;59900;50.788;12.904;2023-04-04T05:33:50;98523.78;;;0.31;83.31
72038;BME280;59900;50.788;12.904;2023-04-04T05:36:16;98526.47;;;0.30;84.07
72038;BME280;59900;50.788;12.904;2023-04-04T05:38:41;98525.66;;;0.29;83.70
72038;BME280;59900;50.788;12.904;2023-04-04T05:41:07;98529.47;;;0.24;83.83
72038;BME280;59900;50.788;12.904;2023-04-04T05:43:32;98529.59;;;0.22;84.25
72038;BME280;59900;50.788;12.904;2023-04-04T05:45:57;98534.56;;;0.25;84.27
72038;BME280;59900;50.788;12.904;2023-04-04T05:48:23;98533.94;;;0.22;84.49
72038;BME280;59900;50.788;12.904;2023-04-04T05:50:48;98537.97;;;0.26;83.93
72038;BME280;59900;50.788;12.904;2023-04-04T05:53:13;98534.94;;;0.32;83.51
72038;BME280;59900;50.788;12.904;2023-04-04T05:55:39;98540.72;;;0.35;83.43
72038;BME280;59900;50.788;12.904;2023-04-04T05:58:04;98541.53;;;0.36;83.33
72038;BME280;59900;50.788;12.904;2023-04-04T06:00:29;98537.81;;;0.40;83.14
72038;BME280;59900;50.788;12.904;2023-04-04T06:02:55;98535.09;;;0.41;83.33
72038;BME280;59900;50.788;12.904;2023-04-04T06:05:22;98539.03;;;0.47;82.99
72038;BME280;59900;50.788;12.904;2023-04-04T06:07:47;98539.84;;;0.47;82.89
72038;BME280;59900;50.788;12.904;2023-04-04T06:10:13;98536.22;;;0.50;82.97
72038;BME280;59900;50.788;12.904;2023-04-04T06:12:38;98538.28;;;0.57;82.70
72038;BME280;59900;50.788;12.904;2023-04-04T06:15:03;98543.22;;;0.61;82.50
72038;BME280;59900;50.788;12.904;2023-04-04T06:17:29;98536.91;;;0.65;82.03
72038;BME280;59900;50.788;12.904;2023-04-04T06:19:54;98535.13;;;0.65;82.16
72038;BME280;59900;50.788;12.904;2023-04-04T06:22:19;98535.13;;;0.65;82.23
72038;BME280;59900;50.788;12.904;2023-04-04T06:24:45;98530.78;;;0.66;81.86
72038;BME280;59900;50.788;12.904;2023-04-04T06:27:10;98540.09;;;0.68;81.30
72038;BME280;59900;50.788;12.904;2023-04-04T06:29:36;98541.53;;;0.72;81.31
72038;BME280;59900;50.788;12.904;2023-04-04T06:32:01;98532.84;;;0.73;81.11
72038;BME280;59900;50.788;12.904;2023-04-04T06:34:26;98534.03;;;0.80;81.51
72038;BME280;59900;50.788;12.904;2023-04-04T06:36:55;98541.34;;;0.86;81.54
72038;BME280;59900;50.788;12.904;2023-04-04T06:39:20;98533.75;;;0.96;81.31
72038;BME280;59900;50.788;12.904;2023-04-04T06:41:45;98536.94;;;0.99;81.04
72038;BME280;59900;50.788;12.904;2023-04-04T06:44:12;98528.53;;;1.08;80.43
72038;BME280;59900;50.788;12.904;2023-04-04T06:46:37;98532.13;;;1.06;80.55
72038;BME280;59900;50.788;12.904;2023-04-04T06:49:03;98534.63;;;1.07;80.43
72038;BME280;59900;50.788;12.904;2023-04-04T06:51:29;98530.88;;;1.11;79.95
72038;BME280;59900;50.788;12.904;2023-04-04T06:53:55;98531.44;;;1.04;80.29
72038;BME280;59900;50.788;12.904;2023-04-04T06:56:20;98536.72;;;1.02;79.97
72038;BME280;59900;50.788;12.904;2023-04-04T06:58:46;98533.47;;;1.11;80.46
72038;BME280;59900;50.788;12.904;2023-04-04T07:01:12;98543.09;;;1.09;79.47
72038;BME280;59900;50.788;12.904;2023-04-04T07:03:37;98535.78;;;1.03;79.76
72038;BME280;59900;50.788;12.904;2023-04-04T07:06:03;98535.56;;;1.06;79.83
72038;BME280;59900;50.788;12.904;2023-04-04T07:08:28;98542.63;;;1.16;79.20
72038;BME280;59900;50.788;12.904;2023-04-04T07:10:54;98531.09;;;1.08;78.57
72038;BME280;59900;50.788;12.904;2023-04-04T07:13:19;98531.81;;;1.10;78.43
72038;BME280;59900;50.788;12.904;2023-04-04T07:15:45;98540.53;;;1.21;78.25
72038;BME280;59900;50.788;12.904;2023-04-04T07:18:14;98543.03;;;1.22;78.65
72038;BME280;59900;50.788;12.904;2023-04-04T07:20:40;98530.56;;;1.27;78.50
72038;BME280;59900;50.788;12.904;2023-04-04T07:23:05;98533.63;;;1.32;78.53
72038;BME280;59900;50.788;12.904;2023-04-04T07:25:30;98534.13;;;1.37;78.11
72038;BME280;59900;50.788;12.904;2023-04-04T07:27:56;98531.03;;;1.32;77.26
72038;BME280;59900;50.788;12.904;2023-04-04T07:30:21;98532.91;;;1.30;77.59
72038;BME280;59900;50.788;12.904;2023-04-04T07:32:56;98539.84;;;1.30;77.60
72038;BME280;59900;50.788;12.904;2023-04-04T07:35:22;98538.94;;;1.31;77.67
72038;BME280;59900;50.788;12.904;2023-04-04T07:37:47;98546.13;;;1.38;77.35
72038;BME280;59900;50.788;12.904;2023-04-04T07:40:12;98542.84;;;1.47;76.99
72038;BME280;59900;50.788;12.904;2023-04-04T07:42:42;98543.44;;;1.51;75.94
72038;BME280;59900;50.788;12.904;2023-04-04T07:45:08;98547.25;;;1.58;74.02
72038;BME280;59900;50.788;12.904;2023-04-04T07:47:33;98540.75;;;1.63;74.10
72038;BME280;59900;50.788;12.904;2023-04-04T07:49:59;98527.81;;;1.75;73.53
72038;BME280;59900;50.788;12.904;2023-04-04T07:52:25;98534.38;;;1.67;73.70
72038;BME280;59900;50.788;12.904;2023-04-04T07:54:50;98538.53;;;1.70;73.81
72038;BME280;59900;50.788;12.904;2023-04-04T07:57:16;98532.06;;;1.76;72.71
72038;BME280;59900;50.788;12.904;2023-04-04T07:59:42;98536.06;;;1.80;72.35
72038;BME280;59900;50.788;12.904;2023-04-04T08:02:07;98539.72;;;1.88;72.99
72038;BME280;59900;50.788;12.904;2023-04-04T08:04:32;98533.72;;;1.99;72.55
72038;BME280;59900;50.788;12.904;2023-04-04T08:06:57;98525.72;;;2.02;72.28
72038;BME280;59900;50.788;12.904;2023-04-04T08:09:23;98528.66;;;2.08;71.14
72038;BME280;59900;50.788;12.904;2023-04-04T08:11:49;98531.94;;;2.10;70.79
72038;BME280;59900;50.788;12.904;2023-04-04T08:14:14;98528.41;;;2.11;70.38
72038;BME280;59900;50.788;12.904;2023-04-04T08:16:39;98529.13;;;2.13;69.23
72038;BME280;59900;50.788;12.904;2023-04-04T08:19:05;98530.41;;;2.19;67.85
72038;BME280;59900;50.788;12.904;2023-04-04T08:21:31;98530.28;;;2.32;67.71
72038;BME280;59900;50.788;12.904;2023-04-04T08:23:57;98522.84;;;2.49;66.57
72038;BME280;59900;50.788;12.904;2023-04-04T08:26:22;98527.16;;;2.60;64.58
72038;BME280;59900;50.788;12.904;2023-04-04T08:28:47;98525.00;;;2.65;63.11
72038;BME280;59900;50.788;12.904;2023-04-04T08:31:13;98523.44;;;2.73;61.81
72038;BME280;59900;50.788;12.904;2023-04-04T08:33:38;98520.31;;;2.70;61.99
72038;BME280;59900;50.788;12.904;2023-04-04T08:36:03;98518.66;;;2.69;63.24
72038;BME280;59900;50.788;12.904;2023-04-04T08:38:29;98527.03;;;2.61;60.96
72038;BME280;59900;50.788;12.904;2023-04-04T08:40:54;98519.63;;;2.57;59.24
72038;BME280;59900;50.788;12.904;2023-04-04T08:43:20;98530.94;;;2.67;58.98
72038;BME280;59900;50.788;12.904;2023-04-04T08:45:48;98524.03;;;2.77;59.18
72038;BME280;59900;50.788;12.904;2023-04-04T08:48:14;98524.47;;;2.82;57.64
72038;BME280;59900;50.788;12.904;2023-04-04T08:50:42;98518.56;;;2.91;57.03
72038;BME280;59900;50.788;12.904;2023-04-04T08:53:09;98522.94;;;2.91;56.09
72038;BME280;59900;50.788;12.904;2023-04-04T08:55:35;98522.91;;;3.02;55.21
72038;BME280;59900;50.788;12.904;2023-04-04T08:58:00;98517.56;;;3.03;55.72
72038;BME280;59900;50.788;12.904;2023-04-04T09:00:26;98516.47;;;3.06;57.45
72038;BME280;59900;50.788;12.904;2023-04-04T09:02:55;98519.56;;;3.11;57.31
72038;BME280;59900;50.788;12.904;2023-04-04T09:05:25;98510.16;;;2.99;56.96
72038;BME280;59900;50.788;12.904;2023-04-04T09:07:52;98515.16;;;2.91;55.90
72038;BME280;59900;50.788;12.904;2023-04-04T09:10:17;98510.56;;;2.83;55.28
72038;BME280;59900;50.788;12.904;2023-04-04T09:12:45;98514.34;;;2.79;56.12
72038;BME280;59900;50.788;12.904;2023-04-04T09:15:11;98514.97;;;2.71;55.04
72038;BME280;59900;50.788;12.904;2023-04-04T09:17:37;98514.19;;;2.60;56.69
72038;BME280;59900;50.788;12.904;2023-04-04T09:20:08;98521.56;;;2.75;57.01
72038;BME280;59900;50.788;12.904;2023-04-04T09:22:48;98511.00;;;2.88;54.90
72038;BME280;59900;50.788;12.904;2023-04-04T09:25:13;98517.47;;;2.94;55.72
72038;BME280;59900;50.788;12.904;2023-04-04T09:27:38;98511.78;;;3.00;55.86
72038;BME280;59900;50.788;12.904;2023-04-04T09:30:04;98518.53;;;3.02;56.50
72038;BME280;59900;50.788;12.904;2023-04-04T09:32:30;98519.56;;;3.00;54.31
72038;BME280;59900;50.788;12.904;2023-04-04T09:34:55;98501.94;;;2.82;54.39
72038;BME280;59900;50.788;12.904;2023-04-04T09:37:21;98515.19;;;2.79;55.30
72038;BME280;59900;50.788;12.904;2023-04-04T09:39:47;98496.91;;;2.81;55.40
72038;BME280;59900;50.788;12.904;2023-04-04T09:42:13;98523.59;;;2.72;54.85
72038;BME280;59900;50.788;12.904;2023-04-04T09:44:39;98510.63;;;2.72;54.73
72038;BME280;59900;50.788;12.904;2023-04-04T09:47:23;98509.28;;;2.77;55.14
72038;BME280;59900;50.788;12.904;2023-04-04T09:49:50;98506.78;;;2.87;53.70
72038;BME280;59900;50.788;12.904;2023-04-04T09:52:21;98492.47;;;2.93;53.37
72038;BME280;59900;50.788;12.904;2023-04-04T09:54:57;98508.75;;;2.95;53.37
72038;BME280;59900;50.788;12.904;2023-04-04T09:57:29;98527.25;;;3.01;54.56
72038;BME280;59900;50.788;12.904;2023-04-04T10:00:00;98521.38;;;2.99;54.08
72038;BME280;59900;50.788;12.904;2023-04-04T10:02:26;98517.75;;;2.91;54.41
72038;BME280;59900;50.788;12.904;2023-04-04T10:04:53;98518.09;;;2.86;54.70
72038;BME280;59900;50.788;12.904;2023-04-04T10:07:18;98524.00;;;2.88;54.21
72038;BME280;59900;50.788;12.904;2023-04-04T10:09:45;98525.41;;;2.92;53.05
72038;BME280;59900;50.788;12.904;2023-04-04T10:12:11;98524.06;;;2.98;52.96
72038;BME280;59900;50.788;12.904;2023-04-04T10:14:36;98518.88;;;2.98;52.98
72038;BME280;59900;50.788;12.904;2023-04-04T10:17:08;98512.38;;;3.03;52.54
72038;BME280;59900;50.788;12.904;2023-04-04T10:19:37;98509.84;;;3.13;52.39
72038;BME280;59900;50.788;12.904;2023-04-04T10:22:04;98514.16;;;3.23;50.89
72038;BME280;59900;50.788;12.904;2023-04-04T10:24:30;98502.16;;;3.11;49.58
72038;BME280;59900;50.788;12.904;2023-04-04T10:26:56;98506.72;;;2.98;50.01
72038;BME280;59900;50.788;12.904;2023-04-04T10:29:21;98506.25;;;3.04;50.09
72038;BME280;59900;50.788;12.904;2023-04-04T10:31:49;98517.03;;;2.89;51.79
72038;BME280;59900;50.788;12.904;2023-04-04T10:34:28;98507.28;;;2.81;52.89
72038;BME280;59900;50.788;12.904;2023-04-04T10:37:25;98516.94;;;2.90;54.28
72038;BME280;59900;50.788;12.904;2023-04-04T10:40:00;98518.19;;;2.96;53.88
72038;BME280;59900;50.788;12.904;2023-04-04T10:42:31;98508.22;;;2.80;53.31
72038;BME280;59900;50.788;12.904;2023-04-04T10:45:03;98514.69;;;2.86;53.36
72038;BME280;59900;50.788;12.904;2023-04-04T10:47:30;98516.28;;;2.98;53.68
72038;BME280;59900;50.788;12.904;2023-04-04T10:49:56;98512.38;;;3.03;50.95
72038;BME280;59900;50.788;12.904;2023-04-04T10:52:23;98517.59;;;3.24;51.96
72038;BME280;59900;50.788;12.904;2023-04-04T10:54:49;98505.59;;;3.32;51.36
72038;BME280;59900;50.788;12.904;2023-04-04T10:57:16;98508.03;;;3.24;51.01
72038;BME280;59900;50.788;12.904;2023-04-04T11:02:52;98494.28;;;3.13;50.73
72038;BME280;59900;50.788;12.904;2023-04-04T11:05:24;98491.41;;;3.16;50.95
72038;BME280;59900;50.788;12.904;2023-04-04T11:08:06;98498.28;;;3.17;51.42
72038;BME280;59900;50.788;12.904;2023-04-04T11:10:42;98490.53;;;3.26;50.10
72038;BME280;59900;50.788;12.904;2023-04-04T11:13:17;98490.19;;;3.40;50.22
72038;BME280;59900;50.788;12.904;2023-04-04T11:15:58;98489.56;;;3.69;50.33
72038;BME280;59900;50.788;12.904;2023-04-04T11:18:44;98480.31;;;3.85;46.70
72038;BME280;59900;50.788;12.904;2023-04-04T11:21:17;98471.63;;;3.96;46.83
72038;BME280;59900;50.788;12.904;2023-04-04T11:26:12;98483.81;;;4.05;49.61
72038;BME280;59900;50.788;12.904;2023-04-04T11:34:05;98477.25;;;3.71;48.64
72038;BME280;59900;50.788;12.904;2023-04-04T11:39:05;98474.59;;;3.61;48.97
72038;BME280;59900;50.788;12.904;2023-04-04T11:44:20;98468.72;;;3.89;48.97
72038;BME280;59900;50.788;12.904;2023-04-04T11:46:46;98470.69;;;4.07;48.42
72038;BME280;59900;50.788;12.904;2023-04-04T11:49:13;98475.31;;;4.03;46.55
72038;BME280;59900;50.788;12.904;2023-04-04T11:51:39;98460.25;;;3.97;46.31
72038;BME280;59900;50.788;12.904;2023-04-04T11:54:15;98446.06;;;4.11;46.51
72038;BME280;59900;50.788;12.904;2023-04-04T11:56:41;98446.22;;;4.38;45.50
72038;BME280;59900;50.788;12.904;2023-04-04T11:59:10;98451.72;;;4.44;45.30
72038;BME280;59900;50.788;12.904;2023-04-04T12:01:35;98455.97;;;4.65;46.06
72038;BME280;59900;50.788;12.904;2023-04-04T12:04:01;98455.72;;;4.77;46.53
72038;BME280;59900;50.788;12.904;2023-04-04T12:06:29;98450.34;;;4.31;46.44
72038;BME280;59900;50.788;12.904;2023-04-04T12:08:57;98462.13;;;4.25;47.63
72038;BME280;59900;50.788;12.904;2023-04-04T12:11:24;98444.78;;;4.05;47.94
72038;BME280;59900;50.788;12.904;2023-04-04T12:13:50;98442.38;;;4.23;47.58
72038;BME280;59900;50.788;12.904;2023-04-04T12:16:18;98443.38;;;4.50;47.60
72038;BME280;59900;50.788;12.904;2023-04-04T12:18:44;98439.53;;;4.64;46.68
72038;BME280;59900;50.788;12.904;2023-04-04T12:21:10;98438.41;;;5.05;46.16
72038;BME280;59900;50.788;12.904;2023-04-04T12:23:35;98435.25;;;5.30;44.97
72038;BME280;59900;50.788;12.904;2023-04-04T12:26:01;98441.66;;;5.82;44.63
72038;BME280;59900;50.788;12.904;2023-04-04T12:28:30;98438.84;;;6.03;43.95
72038;BME280;59900;50.788;12.904;2023-04-04T12:30:58;98436.88;;;5.78;43.78
72038;BME280;59900;50.788;12.904;2023-04-04T12:33:30;98441.09;;;5.42;44.08
72038;BME280;59900;50.788;12.904;2023-04-04T12:35:58;98444.84;;;5.30;44.86
72038;BME280;59900;50.788;12.904;2023-04-04T12:38:24;98425.28;;;5.06;45.40
72038;BME280;59900;50.788;12.904;2023-04-04T12:40:51;98439.41;;;5.14;45.06
72038;BME280;59900;50.788;12.904;2023-04-04T12:43:17;98423.88;;;5.22;44.95
72038;BME280;59900;50.788;12.904;2023-04-04T12:45:42;98427.97;;;5.34;44.81
72038;BME280;59900;50.788;12.904;2023-04-04T12:48:10;98434.19;;;5.97;45.66
72038;BME280;59900;50.788;12.904;2023-04-04T12:50:48;98424.34;;;6.36;42.83
72038;BME280;59900;50.788;12.904;2023-04-04T12:53:13;98419.38;;;6.95;41.92
72038;BME280;59900;50.788;12.904;2023-04-04T12:55:44;98421.66;;;6.98;39.35
72038;BME280;59900;50.788;12.904;2023-04-04T12:58:10;98411.88;;;7.26;40.07
72038;BME280;59900;50.788;12.904;2023-04-04T13:00:36;98417.94;;;7.86;38.08
72038;BME280;59900;50.788;12.904;2023-04-04T13:03:03;98406.56;;;8.03;37.99
72038;BME280;59900;50.788;12.904;2023-04-04T13:05:28;98391.56;;;8.21;36.34
72038;BME280;59900;50.788;12.904;2023-04-04T13:08:05;98396.63;;;7.73;37.08
72038;BME280;59900;50.788;12.904;2023-04-04T13:11:03;98396.19;;;7.85;37.76
72038;BME280;59900;50.788;12.904;2023-04-04T13:13:38;98391.81;;;8.02;37.31
72038;BME280;59900;50.788;12.904;2023-04-04T13:16:08;98394.28;;;8.54;37.71